createdAt,value
2018-06-05T05:01:28.155Z,94689.37
2018-06-05T05:06:31.463Z,94683.64
2018-06-05T05:11:34.859Z,94693.06
2018-06-05T05:16:38.184Z,94694.17
2018-06-05T05:21:41.626Z,94701.22
2018-06-05T05:26:45.683Z,94697.57
2018-06-05T05:31:49.186Z,94701.89
2018-06-05T05:36:53.514Z,94704.30
2018-06-05T05:41:57.563Z,94710.70
2018-06-05T05:47:00.901Z,94712.54
2018-06-05T05:52:04.911Z,94716.37
2018-06-05T05:57:09.196Z,94720.09
2018-06-05T06:02:12.442Z,94724.31
2018-06-05T06:07:15.731Z,94723.81
2018-06-05T06:12:19.787Z,94716.46
2018-06-05T06:17:23.072Z,94720.48
2018-06-05T06:22:27.126Z,94722.00
2018-06-05T06:27:30.403Z,94719.28
2018-06-05T06:32:33.695Z,94725.80
2018-06-05T06:37:36.982Z,94728.31
2018-06-05T06:42:40.292Z,94730.22
2018-06-05T06:47:43.591Z,94736.19
2018-06-05T06:52:46.870Z,94732.25
2018-06-05T06:57:50.932Z,94732.02
2018-06-05T07:02:54.211Z,94730.45
2018-06-05T07:07:57.508Z,94728.16
2018-06-05T07:13:00.778Z,94738.40
2018-06-05T07:18:04.061Z,94723.93
2018-06-05T07:23:08.115Z,94731.80
2018-06-05T07:28:11.400Z,94722.08
2018-06-05T07:33:15.452Z,94729.70
2018-06-05T07:38:18.736Z,94722.47
2018-06-05T07:43:22.022Z,94722.54
2018-06-05T07:48:25.322Z,94710.38
2018-06-05T07:53:28.775Z,94719.03
2018-06-05T07:58:32.599Z,94713.70
2018-06-05T08:03:36.659Z,94709.00
2018-06-05T08:08:39.941Z,94708.52
2018-06-05T08:13:44.008Z,94715.38
2018-06-05T08:18:47.314Z,94720.64
2018-06-05T08:23:50.594Z,94720.11
2018-06-05T08:28:53.919Z,94722.00
2018-06-05T08:33:57.429Z,94726.02
2018-06-05T08:39:00.711Z,94728.82
2018-06-05T08:44:03.991Z,94725.77
2018-06-05T08:49:07.263Z,94728.45
2018-06-05T08:54:10.568Z,94728.50
2018-06-05T08:59:14.604Z,94724.20
2018-06-05T09:04:18.655Z,94725.94
2018-06-05T09:09:21.936Z,94724.92
2018-06-05T09:14:25.215Z,94716.25
2018-06-05T09:19:28.533Z,94715.27
2018-06-05T09:24:31.855Z,94718.98
2018-06-05T09:29:35.140Z,94720.92
2018-06-05T09:34:38.446Z,94718.67
2018-06-05T09:39:41.748Z,94724.43
2018-06-05T09:44:45.230Z,94714.80
2018-06-05T09:49:49.279Z,94716.98
2018-06-05T09:54:52.767Z,94714.82
2018-06-05T09:59:56.936Z,94715.28
2018-06-05T10:05:00.215Z,94711.16
2018-06-05T10:10:04.340Z,94703.56
2018-06-05T10:15:08.399Z,94699.81
2018-06-05T10:20:11.674Z,94699.38
2018-06-05T10:25:15.727Z,94697.57
2018-06-05T10:30:19.524Z,94694.04
2018-06-05T10:35:22.806Z,94690.75
2018-06-05T10:40:26.091Z,94684.59
2018-06-05T10:45:29.893Z,94684.31
2018-06-05T10:50:33.194Z,94679.86
2018-06-05T10:55:37.234Z,94682.71
2018-06-05T11:00:40.527Z,94683.77
2018-06-05T11:05:44.604Z,94683.96
2018-06-05T11:10:48.078Z,94680.03
2018-06-05T11:15:52.139Z,94666.67
2018-06-05T11:20:55.422Z,94653.90
2018-06-05T11:25:59.859Z,94654.22
2018-06-05T11:31:03.931Z,94649.87
2018-06-05T11:36:07.244Z,94650.05
2018-06-05T11:41:10.718Z,94649.52
2018-06-05T11:46:14.791Z,94647.33
2018-06-05T11:51:18.084Z,94641.47
2018-06-05T11:56:21.376Z,94643.56
2018-06-05T12:01:25.424Z,94640.11
2018-06-05T12:06:28.707Z,94626.92
2018-06-05T12:11:32.756Z,94625.47
2018-06-05T12:16:36.358Z,94617.89
2018-06-05T12:21:40.692Z,94612.53
2018-06-05T12:26:44.753Z,94611.21
2018-06-05T12:31:48.052Z,94609.80
2018-06-05T12:36:51.360Z,94598.94
2018-06-05T12:41:54.671Z,94589.23
2018-06-05T12:46:58.180Z,94589.53
2018-06-05T12:52:02.218Z,94592.27
2018-06-05T12:57:05.503Z,94580.52
2018-06-05T13:02:08.786Z,94580.38
2018-06-05T13:07:12.068Z,94582.31
2018-06-05T13:12:15.559Z,94566.59
2018-06-05T13:17:19.023Z,94568.07
2018-06-05T13:22:23.202Z,94570.88
2018-06-05T13:27:27.246Z,94571.65
2018-06-05T13:32:30.752Z,94566.30
2018-06-05T13:37:34.093Z,94565.72
2018-06-05T13:42:37.328Z,94560.02
2018-06-05T13:47:40.621Z,94556.73
2018-06-05T13:52:43.908Z,94553.58
2018-06-05T13:57:47.192Z,94546.73
2018-06-05T14:02:51.238Z,94551.49
2018-06-05T14:07:55.291Z,94548.08
2018-06-05T14:12:58.571Z,94537.46
2018-06-05T14:18:02.627Z,94540.81
2018-06-05T14:23:05.907Z,94533.48
2018-06-05T14:28:09.958Z,94541.28
2018-06-05T14:33:14.007Z,94533.20
2018-06-05T14:38:17.297Z,94529.41
2018-06-05T14:43:20.583Z,94533.70
2018-06-05T14:48:23.868Z,94529.56
2018-06-05T14:53:27.150Z,94526.48
2018-06-05T14:58:30.451Z,94537.39
2018-06-05T15:03:33.724Z,94520.80
2018-06-05T15:08:37.776Z,94522.77
2018-06-05T15:13:41.832Z,94528.87
2018-06-05T15:18:45.114Z,94529.31
2018-06-05T15:23:49.161Z,94526.27
2018-06-05T15:28:52.457Z,94537.98
2018-06-05T15:33:55.746Z,94534.17
2018-06-05T15:38:59.022Z,94524.58
2018-06-05T15:44:02.307Z,94518.61
2018-06-05T15:49:05.593Z,94520.72
2018-06-05T15:54:09.640Z,94515.45
2018-06-05T15:59:12.914Z,94524.42
2018-06-05T16:04:16.219Z,94523.14
2018-06-05T16:09:19.564Z,94519.93
2018-06-05T16:14:22.842Z,94509.73
2018-06-05T16:19:26.134Z,94508.61
2018-06-05T16:24:29.455Z,94518.66
2018-06-05T16:29:32.752Z,94516.94
2018-06-05T16:34:36.232Z,94528.50
2018-06-05T16:39:39.531Z,94524.39
2018-06-05T16:44:43.832Z,94516.16
2018-06-05T16:49:47.150Z,94509.84
2018-06-05T16:54:50.446Z,94520.78
2018-06-05T16:59:53.771Z,94513.31
2018-06-05T17:04:57.069Z,94514.01
2018-06-05T17:10:00.638Z,94511.06
2018-06-05T17:15:04.711Z,94518.39
2018-06-05T17:20:08.183Z,94516.18
2018-06-05T17:25:12.228Z,94514.22
2018-06-05T17:30:15.539Z,94520.08
2018-06-05T17:35:18.845Z,94519.42
2018-06-05T17:40:46.491Z,94517.91
2018-06-05T17:45:49.972Z,94514.75
2018-06-05T17:50:53.256Z,94522.73
2018-06-05T17:55:56.567Z,94524.05
2018-06-05T18:00:59.857Z,94526.25
2018-06-05T18:06:04.070Z,94528.56
2018-06-05T18:11:07.380Z,94527.11
2018-06-05T18:16:10.683Z,94532.43
2018-06-05T18:21:14.173Z,94530.66
2018-06-05T18:26:18.212Z,94531.93
2018-06-05T18:31:21.693Z,94536.41
2018-06-05T18:36:25.744Z,94542.34
2018-06-05T18:41:29.436Z,94556.39
2018-06-05T18:46:33.489Z,94554.08
2018-06-05T18:51:36.800Z,94568.20
2018-06-05T18:56:40.098Z,94576.16
2018-06-05T19:01:43.402Z,94578.20
2018-06-05T19:06:47.475Z,94578.14
2018-06-05T19:11:51.253Z,94582.89
2018-06-05T19:16:55.298Z,94583.58
2018-06-05T19:21:58.593Z,94588.98
2018-06-05T19:27:02.640Z,94594.41
2018-06-05T19:32:05.926Z,94606.52
2018-06-05T19:37:09.988Z,94610.06
2018-06-05T19:42:13.303Z,94617.19
2018-06-05T19:47:16.604Z,94624.12
2018-06-05T19:52:19.875Z,94631.98
2018-06-05T19:57:23.188Z,94633.24
2018-06-05T20:02:26.512Z,94635.94
2018-06-05T20:07:30.725Z,94636.05
2018-06-05T20:12:35.037Z,94646.55
2018-06-05T20:17:38.558Z,94643.03
2018-06-05T20:22:41.868Z,94647.77
2018-06-05T20:27:45.167Z,94638.31
2018-06-05T20:32:48.455Z,94651.25
2018-06-05T20:37:51.740Z,94646.70
2018-06-05T20:42:55.842Z,94646.64
2018-06-05T20:47:59.105Z,94648.55
2018-06-05T20:53:02.520Z,94651.48
2018-06-05T20:58:06.846Z,94652.64
2018-06-05T21:03:10.265Z,94654.09
2018-06-05T21:08:14.596Z,94656.61
2018-06-05T21:13:18.818Z,94659.55
2018-06-05T21:18:22.875Z,94662.84
2018-06-05T21:23:26.292Z,94662.30
2018-06-05T21:28:29.796Z,94661.44
2018-06-05T21:33:33.870Z,94671.66
2018-06-05T21:38:37.179Z,94660.05
2018-06-05T21:43:40.892Z,94666.78
2018-06-05T21:48:44.172Z,94660.61
2018-06-05T21:53:47.487Z,94662.75
2018-06-05T21:58:51.532Z,94664.17
2018-06-05T22:03:54.820Z,94669.64
2018-06-05T22:08:58.099Z,94662.33
2018-06-05T22:14:01.407Z,94667.95
2018-06-05T22:19:04.720Z,94664.25
2018-06-05T22:24:07.999Z,94669.98
2018-06-05T22:29:23.659Z,94669.50
